Time;durP1;ratioP1;P1;durP2;ratioP2;P2;SDS_P1;SDS_P2;PMS_P1;PMS_P2;Temp;Humidity;BMP_temperature;BMP_pressure;BME280_temperature;BME280_humidity;BME280_pressure;Samples;Min_cycle;Max_cycle;Signal;HPM_P1;HPM_P2
2023/12/31 00:01:39;;;;;;;6.90;3.80;;;;;;;-5.73;67.66;95926.06;6269014;28;20049;-67
2023/12/31 00:04:43;;;;;;;4.80;3.03;;;;;;;-5.56;66.68;95929.19;6270048;28;20053;-68
2023/12/31 00:07:50;;;;;;;6.22;3.75;;;;;;;-5.60;67.32;95927.56;6270109;28;20041;-67
2023/12/31 00:10:54;;;;;;;3.70;2.30;;;;;;;-5.51;67.41;95932.53;6269851;28;20056;-67
2023/12/31 00:14:01;;;;;;;5.95;3.60;;;;;;;-5.56;66.98;95923.22;6270087;28;20040;-67
2023/12/31 00:17:05;;;;;;;7.78;4.03;;;;;;;-5.53;67.24;95928.31;6269414;28;20057;-67
2023/12/31 00:20:10;;;;;;;6.85;3.83;;;;;;;-5.58;67.22;95920.69;6268822;28;20045;-68
2023/12/31 00:23:13;;;;;;;6.80;3.67;;;;;;;-5.47;67.67;95934.16;6267931;28;20049;-67
2023/12/31 00:26:20;;;;;;;6.60;3.97;;;;;;;-5.37;67.05;95939.16;6269755;28;20505;-66
2023/12/31 00:29:24;;;;;;;6.10;3.80;;;;;;;-5.37;67.32;95928.88;6269480;28;20060;-66
2023/12/31 00:32:31;;;;;;;6.18;3.50;;;;;;;-5.26;67.71;95934.69;6269863;28;20044;-67
2023/12/31 00:35:35;;;;;;;6.35;3.50;;;;;;;-5.22;67.33;95938.88;6269040;28;20048;-67
2023/12/31 00:38:37;;;;;;;6.38;3.58;;;;;;;-5.16;67.10;95943.88;6269606;28;20063;-67
2023/12/31 00:41:41;;;;;;;5.53;3.47;;;;;;;-5.22;67.13;95928.59;6269035;28;20051;-66
2023/12/31 00:44:46;;;;;;;5.97;3.78;;;;;;;-5.14;67.83;95942.13;6268743;28;20075;-68
2023/12/31 00:47:53;;;;;;;2.78;2.47;;;;;;;-5.07;67.76;95950.56;6268983;28;20056;-67
2023/12/31 00:50:56;;;;;;;5.22;3.38;;;;;;;-4.90;67.48;95970.75;6268778;28;20049;-67
2023/12/31 00:54:00;;;;;;;5.93;3.47;;;;;;;-4.99;67.64;95967.50;6258670;28;20053;-67
2023/12/31 00:57:02;;;;;;;8.48;4.32;;;;;;;-5.06;68.02;95971.06;6243727;28;20048;-66
2023/12/31 01:00:07;;;;;;;7.85;4.35;;;;;;;-5.10;68.66;95966.00;6243449;28;20068;-67
2023/12/31 01:03:09;;;;;;;8.00;4.60;;;;;;;-5.11;68.42;95960.03;6243784;28;20420;-66
2023/12/31 01:06:13;;;;;;;8.80;4.53;;;;;;;-5.19;68.90;95934.50;6243656;28;20060;-68
2023/12/31 01:09:15;;;;;;;3.55;2.40;;;;;;;-5.00;69.13;95952.97;6243708;28;20455;-66
2023/12/31 01:12:20;;;;;;;7.40;5.25;;;;;;;-4.96;68.85;95959.72;6243161;28;20046;-67
2023/12/31 01:15:24;;;;;;;6.78;4.82;;;;;;;-4.79;68.86;95956.00;6226569;28;20044;-67
2023/12/31 01:18:28;;;;;;;9.27;5.10;;;;;;;-4.80;68.97;95956.88;6243602;28;20171;-67
2023/12/31 01:21:32;;;;;;;7.35;4.45;;;;;;;-4.72;68.96;95962.72;6244074;28;20063;-67
2023/12/31 01:24:36;;;;;;;8.07;4.20;;;;;;;-4.81;69.50;95965.44;6243951;28;20041;-67
2023/12/31 01:27:43;;;;;;;5.20;3.58;;;;;;;-4.58;68.90;95968.44;6244832;28;20042;-67
2023/12/31 01:30:47;;;;;;;8.38;5.10;;;;;;;-4.65;69.16;95976.28;6243897;28;20503;-67
2023/12/31 01:33:51;;;;;;;8.48;5.18;;;;;;;-4.68;69.62;95974.59;6243853;28;20356;-67
2023/12/31 01:36:58;;;;;;;6.10;4.07;;;;;;;-4.72;69.53;95975.56;6243903;28;20041;-67
2023/12/31 01:39:59;;;;;;;6.93;4.10;;;;;;;-4.59;70.08;95971.84;6243647;28;20065;-68
2023/12/31 01:43:07;;;;;;;8.82;5.22;;;;;;;-4.66;69.79;95964.31;6243915;28;20173;-66
2023/12/31 01:46:27;;;;;;;7.10;4.35;;;;;;;-4.59;69.80;95974.41;6243667;28;20049;-67
2023/12/31 01:49:30;;;;;;;6.82;4.20;;;;;;;-4.56;69.83;95976.94;6243754;28;20094;-67
2023/12/31 01:52:37;;;;;;;8.75;5.45;;;;;;;-4.58;69.76;95968.44;6243851;28;20042;-68
2023/12/31 01:55:43;;;;;;;6.78;4.05;;;;;;;-4.52;70.26;95983.69;6243478;28;20054;-66
2023/12/31 01:58:48;;;;;;;9.13;5.07;;;;;;;-4.58;70.36;95981.25;6242876;28;20203;-68
2023/12/31 02:01:55;;;;;;;7.18;4.30;;;;;;;-4.45;70.11;95984.41;6244031;28;20499;-66
2023/12/31 02:04:56;;;;;;;5.18;3.50;;;;;;;-4.49;70.05;95980.22;6243028;28;20061;-68
2023/12/31 02:08:01;;;;;;;8.43;3.97;;;;;;;-4.48;70.03;95981.06;6243228;28;20503;-66
2023/12/31 02:11:10;;;;;;;10.40;5.82;;;;;;;-4.43;69.95;95987.81;6243009;28;20052;-67
2023/12/31 02:14:14;;;;;;;11.15;5.20;;;;;;;-4.41;70.01;95992.91;6243478;28;20430;-67
2023/12/31 02:17:18;;;;;;;9.50;5.00;;;;;;;-4.38;70.05;95995.44;6242943;28;20064;-67
2023/12/31 02:20:44;;;;;;;13.65;6.50;;;;;;;-4.42;70.15;96004.06;6226157;28;20446;-66
2023/12/31 02:23:49;;;;;;;15.07;6.80;;;;;;;-4.37;70.76;96002.25;6242679;28;20054;-67
2023/12/31 02:26:50;;;;;;;12.50;6.45;;;;;;;-4.28;70.97;96008.03;6242436;28;20053;-68
2023/12/31 02:30:02;;;;;;;16.02;7.25;;;;;;;-4.14;70.94;96000.03;6242681;28;20056;-66
2023/12/31 02:33:08;;;;;;;12.60;6.50;;;;;;;-4.04;70.76;96007.56;6246766;28;20152;-68
2023/12/31 02:36:12;;;;;;;16.40;7.30;;;;;;;-3.95;70.85;96000.50;6230549;28;20084;-67
2023/12/31 02:39:14;;;;;;;18.30;8.43;;;;;;;-3.92;70.98;95995.28;6229991;28;20057;-67
2023/12/31 02:42:18;;;;;;;17.15;7.95;;;;;;;-3.85;70.15;95995.97;6247322;28;20137;-67
2023/12/31 02:45:26;;;;;;;12.45;6.70;;;;;;;-3.90;70.37;96000.41;6229886;28;20049;-68
2023/12/31 02:48:30;;;;;;;7.68;5.03;;;;;;;-3.95;70.24;95999.66;6247369;28;20654;-69
2023/12/31 02:51:33;;;;;;;9.35;6.43;;;;;;;-3.93;70.33;96005.59;6246990;28;20040;-66
2023/12/31 02:54:37;;;;;;;10.15;5.10;;;;;;;-3.93;70.47;96001.31;6247068;28;20084;-67
2023/12/31 02:57:44;;;;;;;11.35;6.07;;;;;;;-3.93;70.04;96003.03;6247149;28;20064;-67
2023/12/31 03:00:46;;;;;;;8.10;4.72;;;;;;;-3.88;70.62;95993.47;6212862;28;20054;-68
2023/12/31 03:03:50;;;;;;;10.15;5.65;;;;;;;-3.81;70.81;95984.75;6246738;28;20045;-67
2023/12/31 03:06:56;;;;;;;10.38;5.93;;;;;;;-3.71;70.47;95983.69;6247126;28;20049;-67
2023/12/31 03:10:00;;;;;;;11.02;6.38;;;;;;;-3.77;70.98;95976.09;6247205;28;20045;-67
2023/12/31 03:13:06;;;;;;;8.65;4.85;;;;;;;-3.66;70.92;95981.81;6246856;28;20049;-67
2023/12/31 03:16:10;;;;;;;7.85;4.53;;;;;;;-3.59;70.83;95989.38;6245887;28;20065;-67
2023/12/31 03:19:11;;;;;;;;;;;;;;;-3.53;70.82;95976.41;6246327;28;20057;-66
2023/12/31 03:22:14;;;;;;;5.43;2.35;;;;;;;-3.41;70.60;95987.22;6246475;28;19921;-67
2023/12/31 03:25:15;;;;;;;7.50;3.80;;;;;;;-3.26;70.11;95983.44;6246344;28;20431;-66
2023/12/31 03:28:17;;;;;;;9.05;5.32;;;;;;;-3.41;70.67;95989.81;6246439;28;20043;-69
2023/12/31 03:31:21;;;;;;;;;;;;;;;-3.46;70.92;96003.66;6229241;28;20476;-67
2023/12/31 03:34:24;;;;;;;11.23;6.00;;;;;;;-3.41;71.15;95997.53;6246542;28;20094;-67
2023/12/31 03:37:29;;;;;;;5.63;4.00;;;;;;;-3.33;71.21;96005.06;6245953;28;20033;-67
2023/12/31 03:40:30;;;;;;;7.78;4.55;;;;;;;-3.35;71.37;96004.25;6228165;28;20050;-66
2023/12/31 03:43:34;;;;;;;8.40;4.60;;;;;;;-3.27;71.57;96004.91;6227067;28;20052;-67
2023/12/31 03:46:44;;;;;;;7.05;4.57;;;;;;;-3.08;71.33;96009.63;6245789;28;20049;-66
2023/12/31 03:49:49;;;;;;;5.50;3.80;;;;;;;-3.10;71.85;96016.50;6244921;28;20045;-67
2023/12/31 03:52:52;;;;;;;10.27;4.75;;;;;;;-3.10;71.33;96031.97;6253166;28;20045;-68
2023/12/31 03:55:58;;;;;;;7.30;4.32;;;;;;;-3.17;71.97;96032.13;6270274;28;20041;-67
2023/12/31 03:59:02;;;;;;;6.85;4.20;;;;;;;-3.01;71.75;96016.28;6270364;28;20489;-66
2023/12/31 04:02:06;;;;;;;3.83;2.90;;;;;;;-2.86;71.57;96031.34;6269465;28;20060;-67
2023/12/31 04:05:09;;;;;;;6.32;2.83;;;;;;;-2.91;71.40;96028.03;6269765;28;20414;-67
2023/12/31 04:08:10;;;;;;;5.68;3.25;;;;;;;-2.75;71.54;96034.47;6270053;28;20413;-67
2023/12/31 04:11:13;;;;;;;4.32;3.30;;;;;;;-2.80;71.93;96041.47;6269951;28;20063;-67
2023/12/31 04:14:22;;;;;;;3.00;1.95;;;;;;;-2.63;72.23;96043.63;6269932;28;20040;-68
2023/12/31 04:17:25;;;;;;;5.43;3.28;;;;;;;-2.76;72.53;96043.09;6269792;28;20078;-67
2023/12/31 04:20:33;;;;;;;3.55;2.40;;;;;;;-2.80;73.13;96043.19;6269563;28;20497;-67
2023/12/31 04:23:38;;;;;;;5.80;3.72;;;;;;;-2.92;73.34;96041.78;6269790;28;20041;-68
2023/12/31 04:26:46;;;;;;;6.75;4.00;;;;;;;-3.00;73.76;96043.69;6269468;28;20460;-69
2023/12/31 04:29:50;;;;;;;7.50;3.63;;;;;;;-3.09;74.01;96013.06;6251454;28;20119;-68
2023/12/31 04:32:51;;;;;;;;;;;;;;;-2.83;74.10;96053.56;6250914;28;20163;-66
2023/12/31 04:35:53;;;;;;;4.95;3.30;;;;;;;-2.78;74.30;96044.84;6268858;28;20374;-67
2023/12/31 04:38:57;;;;;;;5.22;3.30;;;;;;;-2.75;74.23;96057.63;6269462;28;20045;-67
2023/12/31 04:42:01;;;;;;;5.80;2.80;;;;;;;-2.65;74.92;96050.53;6269262;28;20070;-66
2023/12/31 04:45:08;;;;;;;5.70;3.50;;;;;;;-2.47;74.27;96064.66;6269076;28;20052;-67
2023/12/31 04:48:15;;;;;;;3.72;2.75;;;;;;;-2.41;73.86;96069.63;6269063;28;20049;-66
2023/12/31 04:51:27;;;;;;;5.95;4.00;;;;;;;-2.41;74.21;96074.78;6251510;28;20108;-68
2023/12/31 04:54:28;;;;;;;5.63;3.45;;;;;;;-2.27;73.64;96064.94;6248616;28;20052;-68
2023/12/31 04:57:30;;;;;;;5.97;3.25;;;;;;;-2.17;73.70;96057.81;6269170;28;20572;-68
2023/12/31 05:00:36;;;;;;;7.55;4.65;;;;;;;-2.13;73.25;96056.00;6269019;28;20424;-67
2023/12/31 05:03:43;;;;;;;5.38;3.83;;;;;;;-2.21;73.81;96051.03;6268068;28;20067;-68
2023/12/31 05:06:44;;;;;;;4.95;2.85;;;;;;;-2.04;73.65;96058.31;6268075;28;20125;-67
2023/12/31 05:09:49;;;;;;;3.92;2.05;;;;;;;-1.96;73.47;96056.38;6268447;28;20426;-67
2023/12/31 05:12:50;;;;;;;5.93;3.20;;;;;;;-2.04;73.85;96054.03;6268713;28;20049;-66
2023/12/31 05:15:52;;;;;;;4.93;2.97;;;;;;;-2.02;74.33;96046.22;6268842;28;20044;-67
2023/12/31 05:18:54;;;;;;;4.25;2.55;;;;;;;-1.95;73.78;96040.03;6268603;28;20322;-67
2023/12/31 05:22:00;;;;;;;2.60;1.60;;;;;;;-1.63;73.51;96045.97;6268630;28;20498;-67
2023/12/31 05:25:02;;;;;;;0.93;0.70;;;;;;;-1.50;73.03;96057.59;6268212;28;20045;-67
2023/12/31 05:28:05;;;;;;;3.33;2.05;;;;;;;-1.48;72.85;96048.06;6268336;28;20045;-67
2023/12/31 05:31:10;;;;;;;1.95;1.85;;;;;;;-1.34;72.91;96063.13;6267662;28;20052;-68
2023/12/31 05:34:12;;;;;;;3.05;2.17;;;;;;;-1.42;73.34;96073.66;6268542;28;20036;-68
2023/12/31 05:37:16;;;;;;;2.42;1.70;;;;;;;-1.24;73.40;96063.69;6267941;28;20060;-67
2023/12/31 05:40:20;;;;;;;2.65;1.98;;;;;;;-1.19;73.53;96070.41;6268201;28;20040;-67
2023/12/31 05:43:27;;;;;;;2.55;1.73;;;;;;;-1.12;72.68;96063.28;6268449;28;20049;-67
2023/12/31 05:46:33;;;;;;;1.95;1.63;;;;;;;-0.99;73.10;96064.59;6268470;28;20410;-68
2023/12/31 05:49:37;;;;;;;2.38;1.85;;;;;;;-0.99;73.26;96066.31;6268322;28;20044;-68
2023/12/31 05:52:42;;;;;;;2.60;1.58;;;;;;;-0.77;72.22;96072.47;6267458;28;20044;-67
2023/12/31 05:55:45;;;;;;;2.55;2.20;;;;;;;-0.70;71.55;96057.63;6242978;28;20051;-67
2023/12/31 05:58:49;;;;;;;3.30;2.50;;;;;;;-0.49;71.82;96071.53;6242886;28;20050;-67
2023/12/31 06:01:51;;;;;;;2.35;2.00;;;;;;;-0.32;71.36;96081.31;6243361;28;20034;-67
2023/12/31 06:04:59;;;;;;;3.20;2.15;;;;;;;-0.34;71.05;96071.03;6244094;28;20049;-67
2023/12/31 06:08:04;;;;;;;1.73;1.42;;;;;;;-0.21;71.41;96071.44;6231144;28;20045;-68
2023/12/31 06:11:06;;;;;;;4.40;2.33;;;;;;;-0.22;71.03;96064.59;6247612;28;20054;-68
2023/12/31 06:14:09;;;;;;;4.60;2.60;;;;;;;-0.08;71.13;96072.69;6246618;28;20045;-68
2023/12/31 06:17:10;;;;;;;6.35;3.25;;;;;;;0.03;70.47;96074.03;6247265;28;20057;-68
2023/12/31 06:20:12;;;;;;;5.25;3.72;;;;;;;-0.01;70.66;96068.13;6246721;28;20406;-67
2023/12/31 06:23:14;;;;;;;4.80;3.30;;;;;;;0.12;70.19;96069.41;6247664;28;20061;-68
2023/12/31 06:26:20;;;;;;;4.13;3.38;;;;;;;0.14;70.40;96077.94;6247784;28;20422;-68
2023/12/31 06:29:28;;;;;;;5.97;3.50;;;;;;;0.26;71.11;96071.47;6247664;28;20045;-69
2023/12/31 06:32:35;;;;;;;9.45;5.00;;;;;;;0.27;70.99;96067.97;6247599;28;20045;-69
2023/12/31 06:35:36;;;;;;;4.15;2.63;;;;;;;0.37;70.84;96071.91;6246948;28;20045;-68
2023/12/31 06:38:43;;;;;;;4.32;2.70;;;;;;;0.41;70.94;96080.41;6247469;28;20127;-68
2023/12/31 06:41:44;;;;;;;2.40;1.83;;;;;;;0.40;71.18;96068.38;6246610;28;20148;-68
2023/12/31 06:44:50;;;;;;;5.20;2.40;;;;;;;0.47;71.11;96085.34;6246269;28;20045;-67
2023/12/31 06:47:54;;;;;;;5.25;2.70;;;;;;;0.41;71.38;96077.81;6247290;28;20041;-68
2023/12/31 06:50:57;;;;;;;2.95;2.42;;;;;;;0.42;71.56;96072.56;6247108;28;20045;-68
2023/12/31 06:54:00;;;;;;;4.65;3.55;;;;;;;0.41;71.95;96081.25;6246394;28;20059;-68
2023/12/31 06:57:01;;;;;;;5.75;3.38;;;;;;;0.49;71.76;96082.72;6246331;28;20196;-67
2023/12/31 07:00:03;;;;;;;4.70;3.70;;;;;;;0.50;71.92;96079.22;6247194;28;20038;-68
2023/12/31 07:03:07;;;;;;;5.68;3.63;;;;;;;0.52;72.32;96074.84;6246700;28;20045;-68
2023/12/31 07:06:11;;;;;;;3.22;2.70;;;;;;;0.55;72.03;96077.31;6246641;28;20056;-67
2023/12/31 07:09:14;;;;;;;3.83;2.88;;;;;;;0.71;72.06;96068.06;6246539;28;20050;-68
2023/12/31 07:12:16;;;;;;;2.88;1.77;;;;;;;0.81;72.40;96069.34;6245694;28;20041;-70
2023/12/31 07:15:21;;;;;;;3.55;3.03;;;;;;;0.87;71.76;96069.13;6245697;28;20112;-67
2023/12/31 07:18:23;;;;;;;4.40;2.67;;;;;;;1.03;71.65;96073.69;6245472;28;20052;-68
2023/12/31 07:21:28;;;;;;;5.00;2.63;;;;;;;1.07;71.35;96081.28;6246298;28;20042;-67
2023/12/31 07:24:32;;;;;;;2.83;2.10;;;;;;;1.20;70.91;96086.81;6245472;28;20049;-68
2023/12/31 07:27:35;;;;;;;3.88;1.70;;;;;;;1.21;71.40;96072.94;6228129;28;20045;-69
2023/12/31 07:30:43;;;;;;;3.88;1.65;;;;;;;1.24;71.25;96088.38;6245214;28;20507;-67
2023/12/31 07:33:50;;;;;;;1.70;1.45;;;;;;;1.30;71.46;96097.63;6245318;28;20056;-69
2023/12/31 07:36:54;;;;;;;2.67;1.58;;;;;;;1.45;70.79;96091.00;6245645;28;20061;-68
2023/12/31 07:40:00;;;;;;;1.48;1.23;;;;;;;1.43;70.87;96092.81;6245716;28;20042;-67
2023/12/31 07:43:07;;;;;;;2.55;1.63;;;;;;;1.53;70.60;96094.13;6245899;28;20041;-68
2023/12/31 07:46:11;;;;;;;2.20;1.63;;;;;;;1.50;70.94;96096.81;6245215;28;20058;-68
2023/12/31 07:49:18;;;;;;;2.17;1.85;;;;;;;1.54;71.10;96090.63;6245231;28;20053;-69
2023/12/31 07:52:25;;;;;;;2.33;1.67;;;;;;;1.53;71.93;96094.13;6245541;28;20462;-68
2023/12/31 07:55:30;;;;;;;2.42;1.80;;;;;;;1.60;72.03;96090.34;6244734;28;20068;-67
2023/12/31 07:58:34;;;;;;;2.42;1.58;;;;;;;1.67;71.93;96081.44;6245336;28;20503;-68
2023/12/31 08:01:42;;;;;;;2.70;2.08;;;;;;;1.72;72.07;96102.78;6244883;28;20057;-67
2023/12/31 08:04:47;;;;;;;2.83;1.60;;;;;;;1.76;71.95;96095.75;6245013;28;20046;-67
2023/12/31 08:07:51;;;;;;;3.10;2.47;;;;;;;1.95;71.48;96081.09;6226373;28;20140;-68
2023/12/31 08:10:55;;;;;;;2.60;2.35;;;;;;;1.98;71.32;96085.28;6245107;28;20037;-68
2023/12/31 08:14:02;;;;;;;2.40;1.73;;;;;;;1.92;70.95;96068.22;6245334;28;20499;-69
2023/12/31 08:17:03;;;;;;;2.72;1.33;;;;;;;1.83;71.62;96070.38;6244809;28;20049;-68
2023/12/31 08:20:11;;;;;;;4.30;3.00;;;;;;;1.74;71.90;96077.66;6244815;28;20042;-68
2023/12/31 08:23:12;;;;;;;4.95;3.10;;;;;;;1.72;71.85;96079.47;6245062;28;20038;-68
2023/12/31 08:26:16;;;;;;;3.65;2.80;;;;;;;1.77;71.50;96076.69;6244862;28;20414;-67
2023/12/31 08:29:17;;;;;;;3.08;1.60;;;;;;;1.75;71.63;96079.31;6243981;28;20518;-68
2023/12/31 08:32:28;;;;;;;3.40;2.00;;;;;;;1.74;71.20;96062.09;6244160;28;20057;-68
2023/12/31 08:35:32;;;;;;;3.70;2.60;;;;;;;1.69;71.44;96071.81;6244575;28;20081;-68
2023/12/31 08:38:40;;;;;;;3.92;2.03;;;;;;;1.54;71.85;96075.91;6244426;28;20045;-69
2023/12/31 08:41:44;;;;;;;4.72;2.78;;;;;;;1.36;72.75;96079.28;6244392;28;20115;-69
2023/12/31 08:44:48;;;;;;;;;;;;;;;1.47;72.58;96078.81;6243745;28;20199;-68
2023/12/31 08:47:57;;;;;;;7.38;4.22;;;;;;;1.23;73.06;96080.66;6244011;28;19925;-67
2023/12/31 08:51:04;;;;;;;3.90;2.22;;;;;;;1.32;72.77;96070.75;6243979;28;20041;-68
2023/12/31 08:54:07;;;;;;;3.13;2.15;;;;;;;1.33;72.90;96067.28;6256346;28;20060;-68
2023/12/31 08:57:11;;;;;;;5.15;3.63;;;;;;;1.33;72.60;96056.91;6293294;28;20040;-68
2023/12/31 09:00:18;;;;;;;2.45;2.25;;;;;;;1.27;72.88;96051.13;6292679;28;20057;-68
2023/12/31 09:03:24;;;;;;;4.45;2.60;;;;;;;1.41;72.00;96050.56;6293115;28;20058;-68
2023/12/31 09:06:25;;;;;;;3.00;2.45;;;;;;;1.30;72.42;96054.44;6292327;28;20433;-68
2023/12/31 09:09:32;;;;;;;4.78;2.25;;;;;;;1.37;72.13;96049.00;6293504;28;20607;-67
2023/12/31 09:12:34;;;;;;;5.32;4.03;;;;;;;1.37;72.22;96057.63;6293007;28;20052;-67
2023/12/31 09:15:42;;;;;;;4.85;3.15;;;;;;;1.52;71.51;96050.94;6292826;28;20139;-69
2023/12/31 09:18:43;;;;;;;3.95;2.17;;;;;;;1.61;71.17;96047.94;6293019;28;20056;-67
2023/12/31 09:21:47;;;;;;;3.17;2.20;;;;;;;1.67;70.91;96037.34;6293061;28;20041;-68
2023/12/31 09:24:51;;;;;;;3.20;2.15;;;;;;;1.68;70.64;96020.88;6293205;28;20046;-69
2023/12/31 09:27:59;;;;;;;4.50;3.13;;;;;;;1.76;70.62;96028.31;6293338;28;20054;-67
2023/12/31 09:31:03;;;;;;;3.55;2.60;;;;;;;1.85;70.28;96027.91;6293214;28;20041;-67
2023/12/31 09:34:07;;;;;;;4.25;2.25;;;;;;;1.89;70.36;96023.41;6292896;28;20123;-68
2023/12/31 09:37:18;;;;;;;3.88;2.67;;;;;;;1.95;69.87;96033.53;6293306;28;20041;-68
2023/12/31 09:40:19;;;;;;;3.15;2.40;;;;;;;1.97;69.62;96031.72;6295053;28;20060;-68
2023/12/31 09:43:22;;;;;;;4.00;2.35;;;;;;;1.89;69.54;96033.78;6298142;28;20876;-68
2023/12/31 09:46:31;;;;;;;2.95;2.05;;;;;;;1.87;69.79;96025.22;6298254;28;20560;-68
2023/12/31 09:49:34;;;;;;;4.85;3.55;;;;;;;1.70;70.30;96024.25;6297510;28;20052;-67
2023/12/31 09:52:41;;;;;;;3.88;1.58;;;;;;;1.82;70.03;96027.22;6292171;28;20049;-67
2023/12/31 09:55:50;;;;;;;4.88;2.90;;;;;;;1.63;70.42;96025.41;6247980;28;20136;-68
2023/12/31 09:58:52;;;;;;;2.63;2.13;;;;;;;1.59;71.15;96021.28;6247776;28;20491;-68
2023/12/31 10:01:58;;;;;;;4.72;3.53;;;;;;;1.41;71.87;96022.03;6247570;28;20056;-67
2023/12/31 10:05:04;;;;;;;5.25;3.70;;;;;;;1.38;72.13;96020.41;6248386;28;20037;-67
2023/12/31 10:08:13;;;;;;;5.15;3.95;;;;;;;1.34;72.72;96019.72;6248326;28;20041;-68
2023/12/31 10:11:20;;;;;;;6.75;4.50;;;;;;;1.30;72.80;96015.56;6248392;28;20052;-68
2023/12/31 10:14:22;;;;;;;5.47;3.78;;;;;;;1.35;73.34;96008.41;6262865;28;20053;-68
2023/12/31 10:17:26;;;;;;;;;;;;;;;1.47;73.41;96011.41;6248703;28;20037;-69
2023/12/31 10:20:34;;;;;;;6.78;4.13;;;;;;;1.37;73.20;96010.97;6248024;28;19917;-70
2023/12/31 10:23:39;;;;;;;5.05;3.40;;;;;;;1.29;73.54;96006.09;6247682;28;20045;-67
2023/12/31 10:26:44;;;;;;;4.93;3.70;;;;;;;1.28;73.56;96007.00;6247114;28;20248;-68
2023/12/31 10:29:45;;;;;;;3.60;2.90;;;;;;;1.31;73.13;96012.06;6247299;28;20091;-67
2023/12/31 10:32:51;;;;;;;3.90;2.83;;;;;;;1.36;72.93;96004.09;6247601;28;20038;-68
2023/12/31 10:36:06;;;;;;;4.10;2.75;;;;;;;1.28;73.08;96007.00;6247855;28;20384;-68
2023/12/31 10:39:10;;;;;;;3.72;2.65;;;;;;;1.22;72.97;96004.69;6247036;28;20053;-69
2023/12/31 10:42:11;;;;;;;;;;;;;;;1.35;73.13;96007.59;6247897;28;20128;-67
2023/12/31 10:45:22;;;;;;;4.50;2.53;;;;;;;1.18;73.01;96010.88;6247459;28;20317;-68
2023/12/31 10:48:32;;;;;;;3.35;2.28;;;;;;;1.15;73.47;96000.66;6247825;28;20116;-68
2023/12/31 10:51:38;;;;;;;2.72;2.08;;;;;;;1.26;72.82;95982.91;6245638;28;20140;-68
2023/12/31 10:54:51;;;;;;;3.75;2.85;;;;;;;1.24;72.91;95979.53;6246281;28;20426;-68
2023/12/31 10:57:57;;;;;;;2.72;2.03;;;;;;;1.17;72.77;95978.13;6246983;28;20053;-68
2023/12/31 11:01:02;;;;;;;4.05;2.42;;;;;;;1.08;72.62;95968.16;6246154;28;20561;-69
2023/12/31 11:04:09;;;;;;;3.22;2.45;;;;;;;1.09;72.78;95954.28;6246975;28;20045;-68
2023/12/31 11:07:14;;;;;;;3.47;2.92;;;;;;;1.07;73.15;95950.91;6245981;28;20056;-68
2023/12/31 11:10:17;;;;;;;4.10;2.55;;;;;;;0.95;72.81;95966.97;6246949;28;20041;-69
2023/12/31 11:13:21;;;;;;;1.67;1.48;;;;;;;1.08;72.34;95958.63;6245982;28;20724;-69
2023/12/31 11:16:50;;;;;;;4.63;2.58;;;;;;;0.97;72.60;95965.16;6246150;28;20080;-69
2023/12/31 11:20:13;;;;;;;4.63;2.47;;;;;;;1.10;72.47;95962.00;6245720;28;20056;-69
2023/12/31 11:23:23;;;;;;;2.58;1.25;;;;;;;1.11;72.12;95968.84;6245822;28;20419;-68
2023/12/31 11:26:28;;;;;;;2.28;1.80;;;;;;;1.02;72.46;95984.78;6245908;28;20057;-68
2023/12/31 11:29:32;;;;;;;2.85;2.20;;;;;;;0.81;71.59;95939.88;6246368;28;20119;-68
2023/12/31 11:32:38;;;;;;;3.80;2.47;;;;;;;1.01;71.97;95971.88;6246178;28;20045;-70
2023/12/31 11:35:48;;;;;;;1.70;1.55;;;;;;;0.99;72.31;95968.50;6245292;28;20481;-69
2023/12/31 11:39:17;;;;;;;3.45;1.92;;;;;;;0.82;72.81;95964.03;6245524;28;20045;-70
2023/12/31 11:42:23;;;;;;;3.72;2.00;;;;;;;0.75;73.39;95962.59;6245064;28;20515;-68
2023/12/31 11:45:41;;;;;;;3.33;1.88;;;;;;;0.63;73.96;95958.75;6246183;28;20050;-68
2023/12/31 11:48:42;;;;;;;3.95;2.50;;;;;;;0.64;73.76;95952.69;6245109;28;20576;-68
2023/12/31 11:51:57;;;;;;;2.72;1.92;;;;;;;0.60;73.83;95945.94;6245144;28;20049;-68
2023/12/31 11:55:01;;;;;;;3.25;2.67;;;;;;;0.50;74.74;95931.69;6245274;28;20434;-69
2023/12/31 11:58:10;;;;;;;3.42;2.67;;;;;;;0.56;74.54;95934.00;6244845;28;20057;-68
2023/12/31 12:01:11;;;;;;;3.80;2.67;;;;;;;0.30;75.39;95933.31;6245515;28;20033;-68
2023/12/31 12:04:17;;;;;;;4.53;3.03;;;;;;;0.40;75.11;95929.47;6245275;28;20041;-68
2023/12/31 12:07:21;;;;;;;3.60;2.13;;;;;;;0.43;75.79;95931.09;6245218;28;20041;-68
2023/12/31 12:10:25;;;;;;;5.30;2.97;;;;;;;0.31;75.39;95931.56;6245463;28;20042;-68
2023/12/31 12:13:32;;;;;;;5.25;2.50;;;;;;;0.19;76.14;95917.38;6245606;28;20041;-69
2023/12/31 12:16:37;;;;;;;5.78;3.47;;;;;;;0.23;76.32;95911.19;6245131;28;20123;-69
2023/12/31 12:19:39;;;;;;;4.47;2.30;;;;;;;0.25;76.29;95914.53;6244645;28;20553;-68
2023/12/31 12:22:44;;;;;;;4.65;3.17;;;;;;;0.12;77.23;95905.59;6244234;28;20049;-69
2023/12/31 12:25:50;;;;;;;5.43;3.03;;;;;;;0.31;76.51;95903.97;6245029;28;20052;-68
2023/12/31 12:28:56;;;;;;;4.45;2.72;;;;;;;0.31;76.21;95898.78;6243657;28;20053;-68
2023/12/31 12:32:02;;;;;;;5.55;3.40;;;;;;;0.27;76.78;95898.97;6244354;28;20049;-68
2023/12/31 12:35:08;;;;;;;4.80;2.90;;;;;;;0.28;76.45;95891.13;6243727;28;20065;-68
2023/12/31 12:38:12;;;;;;;5.00;2.50;;;;;;;0.39;75.92;95877.75;6244977;28;20049;-68
2023/12/31 12:41:23;;;;;;;3.22;2.55;;;;;;;0.35;76.70;95879.63;6244017;28;20049;-69
2023/12/31 12:44:28;;;;;;;3.85;2.70;;;;;;;0.31;75.83;95878.09;6243792;28;20526;-68
2023/12/31 12:47:32;;;;;;;3.35;2.00;;;;;;;0.34;76.29;95877.09;6244374;28;20081;-69
2023/12/31 12:50:36;;;;;;;3.35;2.47;;;;;;;0.29;76.58;95879.06;6244480;28;20041;-68
2023/12/31 12:53:45;;;;;;;4.53;2.85;;;;;;;0.23;76.55;95859.44;6258350;28;20056;-68
2023/12/31 12:56:49;;;;;;;3.80;2.38;;;;;;;0.26;76.00;95850.72;6269402;28;20045;-69
2023/12/31 12:59:56;;;;;;;4.85;3.33;;;;;;;0.14;76.29;95855.47;6268826;28;20036;-70
2023/12/31 13:03:01;;;;;;;4.20;2.92;;;;;;;0.09;76.83;95862.56;6268365;28;20075;-68
2023/12/31 13:06:05;;;;;;;9.60;4.00;;;;;;;0.08;76.16;95860.03;6268953;28;20064;-69
2023/12/31 13:09:11;;;;;;;7.68;3.65;;;;;;;0.26;75.92;95854.16;6269057;28;20041;-68
2023/12/31 13:12:13;;;;;;;6.07;3.03;;;;;;;0.16;76.27;95848.47;6268902;28;20150;-69
2023/12/31 13:15:15;;;;;;;5.85;2.95;;;;;;;0.14;76.29;95849.44;6268255;28;20128;-68
2023/12/31 13:18:19;;;;;;;7.35;3.90;;;;;;;-0.02;76.46;95844.06;6268922;28;20517;-67
2023/12/31 13:21:23;;;;;;;6.97;3.60;;;;;;;-0.01;76.75;95845.72;6268628;28;20370;-67
2023/12/31 13:24:29;;;;;;;4.20;2.58;;;;;;;-0.02;77.22;95824.22;6268964;28;20123;-68
2023/12/31 13:27:30;;;;;;;3.78;2.80;;;;;;;-0.03;76.93;95832.00;6268733;28;20044;-68
2023/12/31 13:30:35;;;;;;;6.40;3.70;;;;;;;-0.13;77.39;95816.03;6268988;28;20060;-68
2023/12/31 13:33:46;;;;;;;6.80;4.13;;;;;;;-0.08;77.70;95811.53;6268361;28;20422;-68
2023/12/31 13:36:51;;;;;;;6.40;3.63;;;;;;;-0.04;77.52;95810.50;6268545;28;20041;-68
2023/12/31 13:40:00;;;;;;;6.68;3.40;;;;;;;-0.33;77.66;95777.22;6268522;28;20498;-68
2023/12/31 13:43:07;;;;;;;5.82;2.60;;;;;;;0.05;77.36;95813.59;6268617;28;20045;-67
2023/12/31 13:46:10;;;;;;;5.07;3.78;;;;;;;-0.13;77.34;95816.03;6267676;28;20055;-67
2023/12/31 13:49:16;;;;;;;6.75;3.70;;;;;;;-0.14;77.69;95824.69;6268590;28;20410;-69
2023/12/31 13:52:20;;;;;;;5.85;3.63;;;;;;;-0.20;77.71;95824.09;6268268;28;20033;-67
2023/12/31 13:55:25;;;;;;;4.57;2.88;;;;;;;-0.22;78.07;95821.56;6267263;28;20063;-67
2023/12/31 13:58:30;;;;;;;5.47;3.80;;;;;;;-0.23;78.30;95806.94;6267251;28;20135;-69
2023/12/31 14:01:35;;;;;;;7.07;4.30;;;;;;;-0.30;78.64;95802.94;6268278;28;20049;-68
2023/12/31 14:04:45;;;;;;;5.20;2.28;;;;;;;-0.06;78.55;95798.53;6268513;28;20637;-69
2023/12/31 14:07:53;;;;;;;6.65;3.10;;;;;;;-0.13;78.43;95800.53;6268085;28;20118;-67
2023/12/31 14:10:59;;;;;;;4.60;2.67;;;;;;;-0.09;79.19;95790.88;6267879;28;20114;-68
2023/12/31 14:14:05;;;;;;;4.65;2.72;;;;;;;0.08;78.07;95797.97;6250667;28;20037;-68
2023/12/31 14:17:07;;;;;;;6.95;4.13;;;;;;;-0.17;78.73;95786.03;6267646;28;20053;-68
2023/12/31 14:20:09;;;;;;;5.80;3.13;;;;;;;-0.18;78.87;95779.16;6266397;28;20060;-68
2023/12/31 14:23:12;;;;;;;5.72;4.10;;;;;;;-0.25;79.35;95777.75;6268095;28;20060;-68
2023/12/31 14:26:14;;;;;;;6.88;3.70;;;;;;;-0.13;79.03;95764.31;6269146;28;20264;-68
2023/12/31 14:29:17;;;;;;;3.38;2.60;;;;;;;-0.13;78.83;95790.19;6271328;28;20052;-69
2023/12/31 14:32:21;;;;;;;3.80;2.80;;;;;;;-0.16;79.19;95777.38;6271749;28;20458;-68
2023/12/31 14:35:26;;;;;;;5.22;2.80;;;;;;;-0.20;78.66;95787.88;6271289;28;20055;-68
2023/12/31 14:38:29;;;;;;;4.13;3.35;;;;;;;-0.25;78.37;95770.00;6272535;28;20045;-67